sensor_id;sensor_type;location;lat;lon;timestamp;temperature;humidity
73955;DHT22;62306;52.516;13.290;2022-11-30T00:00:22;5.50;90.70
73955;DHT22;62306;52.516;13.290;2022-11-30T00:02:49;5.50;90.70
73955;DHT22;62306;52.516;13.290;2022-11-30T00:05:18;5.50;91.00
73955;DHT22;62306;52.516;13.290;2022-11-30T00:07:47;5.50;90.70
73955;DHT22;62306;52.516;13.290;2022-11-30T00:10:14;5.60;90.50
73955;DHT22;62306;52.516;13.290;2022-11-30T00:12:41;5.50;90.60
73955;DHT22;62306;52.516;13.290;2022-11-30T00:15:08;5.50;90.60
73955;DHT22;62306;52.516;13.290;2022-11-30T00:17:36;5.60;90.50
73955;DHT22;62306;52.516;13.290;2022-11-30T00:20:04;5.60;90.30
73955;DHT22;62306;52.516;13.290;2022-11-30T00:22:31;5.60;90.40
73955;DHT22;62306;52.516;13.290;2022-11-30T00:25:00;5.50;90.60
73955;DHT22;62306;52.516;13.290;2022-11-30T00:27:27;5.50;90.50
73955;DHT22;62306;52.516;13.290;2022-11-30T00:29:54;5.50;90.40
73955;DHT22;62306;52.516;13.290;2022-11-30T00:32:21;5.60;90.30
73955;DHT22;62306;52.516;13.290;2022-11-30T00:34:48;5.40;90.50
73955;DHT22;62306;52.516;13.290;2022-11-30T00:37:15;5.40;90.70
73955;DHT22;62306;52.516;13.290;2022-11-30T00:39:42;5.40;90.70
73955;DHT22;62306;52.516;13.290;2022-11-30T00:42:10;5.40;90.70
73955;DHT22;62306;52.516;13.290;2022-11-30T00:44:37;5.40;90.50
73955;DHT22;62306;52.516;13.290;2022-11-30T00:47:04;5.50;90.50
73955;DHT22;62306;52.516;13.290;2022-11-30T00:49:31;5.50;90.40
73955;DHT22;62306;52.516;13.290;2022-11-30T00:51:59;5.50;90.30
73955;DHT22;62306;52.516;13.290;2022-11-30T00:54:26;5.60;90.20
73955;DHT22;62306;52.516;13.290;2022-11-30T00:56:53;5.50;90.30
73955;DHT22;62306;52.516;13.290;2022-11-30T00:59:21;5.50;90.40
73955;DHT22;62306;52.516;13.290;2022-11-30T01:01:48;5.50;90.40
73955;DHT22;62306;52.516;13.290;2022-11-30T01:04:15;5.50;90.20
73955;DHT22;62306;52.516;13.290;2022-11-30T01:06:42;5.50;90.20
73955;DHT22;62306;52.516;13.290;2022-11-30T01:09:09;5.50;90.00
73955;DHT22;62306;52.516;13.290;2022-11-30T01:11:36;5.50;90.10
73955;DHT22;62306;52.516;13.290;2022-11-30T01:14:03;5.50;90.10
73955;DHT22;62306;52.516;13.290;2022-11-30T01:16:32;5.50;90.00
73955;DHT22;62306;52.516;13.290;2022-11-30T01:18:59;5.50;90.10
73955;DHT22;62306;52.516;13.290;2022-11-30T01:21:28;5.50;90.10
73955;DHT22;62306;52.516;13.290;2022-11-30T01:23:55;5.50;90.10
73955;DHT22;62306;52.516;13.290;2022-11-30T01:26:22;5.50;90.10
73955;DHT22;62306;52.516;13.290;2022-11-30T01:28:50;5.40;90.20
73955;DHT22;62306;52.516;13.290;2022-11-30T01:31:18;5.50;90.30
73955;DHT22;62306;52.516;13.290;2022-11-30T01:33:49;5.50;89.80
73955;DHT22;62306;52.516;13.290;2022-11-30T01:36:17;5.40;90.20
73955;DHT22;62306;52.516;13.290;2022-11-30T01:38:47;5.40;90.30
73955;DHT22;62306;52.516;13.290;2022-11-30T01:41:17;5.40;90.10
73955;DHT22;62306;52.516;13.290;2022-11-30T01:43:46;5.40;89.90
73955;DHT22;62306;52.516;13.290;2022-11-30T01:46:32;5.50;89.90
73955;DHT22;62306;52.516;13.290;2022-11-30T01:49:10;5.40;90.00
73955;DHT22;62306;52.516;13.290;2022-11-30T01:51:42;5.40;89.70
73955;DHT22;62306;52.516;13.290;2022-11-30T01:54:11;5.40;90.00
73955;DHT22;62306;52.516;13.290;2022-11-30T01:56:43;5.40;90.00
73955;DHT22;62306;52.516;13.290;2022-11-30T01:59:12;5.40;90.00
73955;DHT22;62306;52.516;13.290;2022-11-30T02:01:39;5.40;89.80
73955;DHT22;62306;52.516;13.290;2022-11-30T02:04:12;5.40;89.60
73955;DHT22;62306;52.516;13.290;2022-11-30T02:06:40;5.40;89.80
73955;DHT22;62306;52.516;13.290;2022-11-30T02:09:07;5.30;90.00
73955;DHT22;62306;52.516;13.290;2022-11-30T02:11:34;5.30;90.10
73955;DHT22;62306;52.516;13.290;2022-11-30T02:14:11;5.20;90.30
73955;DHT22;62306;52.516;13.290;2022-11-30T02:16:50;5.30;90.20
73955;DHT22;62306;52.516;13.290;2022-11-30T02:22:24;5.40;89.90
73955;DHT22;62306;52.516;13.290;2022-11-30T02:25:03;5.30;90.30
73955;DHT22;62306;52.516;13.290;2022-11-30T02:27:49;5.30;90.10
73955;DHT22;62306;52.516;13.290;2022-11-30T02:30:22;5.30;90.10
73955;DHT22;62306;52.516;13.290;2022-11-30T02:32:51;5.30;90.10
73955;DHT22;62306;52.516;13.290;2022-11-30T02:35:22;5.30;90.30
73955;DHT22;62306;52.516;13.290;2022-11-30T02:37:52;5.30;90.30
73955;DHT22;62306;52.516;13.290;2022-11-30T02:40:21;5.40;89.80
73955;DHT22;62306;52.516;13.290;2022-11-30T02:42:49;5.40;89.50
73955;DHT22;62306;52.516;13.290;2022-11-30T02:45:23;5.30;90.00
73955;DHT22;62306;52.516;13.290;2022-11-30T02:47:56;5.30;90.00
73955;DHT22;62306;52.516;13.290;2022-11-30T02:50:28;5.20;90.00
73955;DHT22;62306;52.516;13.290;2022-11-30T02:52:56;5.20;90.00
73955;DHT22;62306;52.516;13.290;2022-11-30T02:55:24;5.20;90.00
73955;DHT22;62306;52.516;13.290;2022-11-30T02:57:50;5.30;89.50
73955;DHT22;62306;52.516;13.290;2022-11-30T03:00:18;5.20;89.50
73955;DHT22;62306;52.516;13.290;2022-11-30T03:02:46;5.20;89.70
73955;DHT22;62306;52.516;13.290;2022-11-30T03:05:14;5.20;90.00
73955;DHT22;62306;52.516;13.290;2022-11-30T03:07:41;5.20;90.10
73955;DHT22;62306;52.516;13.290;2022-11-30T03:10:09;5.20;90.10
73955;DHT22;62306;52.516;13.290;2022-11-30T03:12:36;5.20;90.00
73955;DHT22;62306;52.516;13.290;2022-11-30T03:15:03;5.30;90.00
73955;DHT22;62306;52.516;13.290;2022-11-30T03:17:30;5.30;89.30
73955;DHT22;62306;52.516;13.290;2022-11-30T03:19:58;5.30;89.00
73955;DHT22;62306;52.516;13.290;2022-11-30T03:22:25;5.30;89.30
73955;DHT22;62306;52.516;13.290;2022-11-30T03:24:52;5.30;89.30
73955;DHT22;62306;52.516;13.290;2022-11-30T03:27:19;5.30;89.30
73955;DHT22;62306;52.516;13.290;2022-11-30T03:29:45;5.20;89.30
73955;DHT22;62306;52.516;13.290;2022-11-30T03:32:12;5.30;89.20
73955;DHT22;62306;52.516;13.290;2022-11-30T03:34:39;5.30;88.80
73955;DHT22;62306;52.516;13.290;2022-11-30T03:37:07;5.40;88.90
73955;DHT22;62306;52.516;13.290;2022-11-30T03:39:34;5.40;88.60
73955;DHT22;62306;52.516;13.290;2022-11-30T03:42:01;5.40;88.50
73955;DHT22;62306;52.516;13.290;2022-11-30T03:44:28;5.40;89.20
73955;DHT22;62306;52.516;13.290;2022-11-30T03:46:55;5.40;88.70
73955;DHT22;62306;52.516;13.290;2022-11-30T03:49:22;5.40;88.60
73955;DHT22;62306;52.516;13.290;2022-11-30T03:51:49;5.30;88.30
73955;DHT22;62306;52.516;13.290;2022-11-30T03:54:17;5.30;88.40
73955;DHT22;62306;52.516;13.290;2022-11-30T03:56:44;5.30;88.70
73955;DHT22;62306;52.516;13.290;2022-11-30T03:59:11;5.20;88.80
73955;DHT22;62306;52.516;13.290;2022-11-30T04:01:38;5.30;88.60
73955;DHT22;62306;52.516;13.290;2022-11-30T04:04:06;5.30;88.90
73955;DHT22;62306;52.516;13.290;2022-11-30T04:06:33;5.30;88.80
73955;DHT22;62306;52.516;13.290;2022-11-30T04:08:59;5.30;88.80
73955;DHT22;62306;52.516;13.290;2022-11-30T04:11:28;5.20;88.90
73955;DHT22;62306;52.516;13.290;2022-11-30T04:13:55;5.20;88.40
73955;DHT22;62306;52.516;13.290;2022-11-30T04:16:22;5.20;88.60
73955;DHT22;62306;52.516;13.290;2022-11-30T04:18:49;5.20;88.40
73955;DHT22;62306;52.516;13.290;2022-11-30T04:21:17;5.10;89.00
73955;DHT22;62306;52.516;13.290;2022-11-30T04:23:43;5.10;89.10
73955;DHT22;62306;52.516;13.290;2022-11-30T04:26:12;5.10;89.10
73955;DHT22;62306;52.516;13.290;2022-11-30T04:28:41;5.10;89.40
73955;DHT22;62306;52.516;13.290;2022-11-30T04:31:08;5.10;89.40
73955;DHT22;62306;52.516;13.290;2022-11-30T04:33:35;5.10;89.30
73955;DHT22;62306;52.516;13.290;2022-11-30T04:36:04;5.10;89.10
73955;DHT22;62306;52.516;13.290;2022-11-30T04:38:32;5.10;89.30
73955;DHT22;62306;52.516;13.290;2022-11-30T04:41:05;5.10;88.80
73955;DHT22;62306;52.516;13.290;2022-11-30T04:43:33;5.10;88.90
73955;DHT22;62306;52.516;13.290;2022-11-30T04:46:01;5.10;88.70
73955;DHT22;62306;52.516;13.290;2022-11-30T04:48:29;5.20;88.80
73955;DHT22;62306;52.516;13.290;2022-11-30T04:50:59;5.20;88.50
73955;DHT22;62306;52.516;13.290;2022-11-30T04:53:26;5.20;88.50
73955;DHT22;62306;52.516;13.290;2022-11-30T04:55:53;5.10;89.00
73955;DHT22;62306;52.516;13.290;2022-11-30T04:58:20;5.20;88.70
73955;DHT22;62306;52.516;13.290;2022-11-30T05:00:47;5.10;88.30
73955;DHT22;62306;52.516;13.290;2022-11-30T05:03:15;5.10;88.60
73955;DHT22;62306;52.516;13.290;2022-11-30T05:05:42;5.10;88.50
73955;DHT22;62306;52.516;13.290;2022-11-30T05:08:09;5.10;88.80
73955;DHT22;62306;52.516;13.290;2022-11-30T05:10:36;5.10;88.60
73955;DHT22;62306;52.516;13.290;2022-11-30T05:13:02;5.10;88.60
73955;DHT22;62306;52.516;13.290;2022-11-30T05:15:30;5.20;88.20
73955;DHT22;62306;52.516;13.290;2022-11-30T05:17:58;5.20;88.30
73955;DHT22;62306;52.516;13.290;2022-11-30T05:20:26;5.30;87.60
73955;DHT22;62306;52.516;13.290;2022-11-30T05:22:54;5.20;87.70
73955;DHT22;62306;52.516;13.290;2022-11-30T05:25:21;5.00;88.90
73955;DHT22;62306;52.516;13.290;2022-11-30T05:27:47;5.00;88.50
73955;DHT22;62306;52.516;13.290;2022-11-30T05:30:15;5.10;89.00
73955;DHT22;62306;52.516;13.290;2022-11-30T05:32:41;5.10;88.60
73955;DHT22;62306;52.516;13.290;2022-11-30T05:35:08;5.20;88.20
73955;DHT22;62306;52.516;13.290;2022-11-30T05:37:37;5.10;88.30
73955;DHT22;62306;52.516;13.290;2022-11-30T05:40:05;5.20;88.10
73955;DHT22;62306;52.516;13.290;2022-11-30T05:42:32;5.20;88.00
73955;DHT22;62306;52.516;13.290;2022-11-30T05:44:59;5.10;88.10
73955;DHT22;62306;52.516;13.290;2022-11-30T05:47:26;5.00;88.30
73955;DHT22;62306;52.516;13.290;2022-11-30T05:49:52;5.00;88.30
73955;DHT22;62306;52.516;13.290;2022-11-30T05:52:19;5.00;88.50
73955;DHT22;62306;52.516;13.290;2022-11-30T05:54:47;5.20;88.20
73955;DHT22;62306;52.516;13.290;2022-11-30T05:57:14;5.00;88.40
73955;DHT22;62306;52.516;13.290;2022-11-30T05:59:41;5.00;88.80
73955;DHT22;62306;52.516;13.290;2022-11-30T06:02:08;5.00;88.80
73955;DHT22;62306;52.516;13.290;2022-11-30T06:04:35;5.10;88.40
73955;DHT22;62306;52.516;13.290;2022-11-30T06:07:02;5.10;88.10
73955;DHT22;62306;52.516;13.290;2022-11-30T06:09:29;5.20;88.00
73955;DHT22;62306;52.516;13.290;2022-11-30T06:11:57;5.10;88.30
73955;DHT22;62306;52.516;13.290;2022-11-30T06:14:24;4.90;88.80
73955;DHT22;62306;52.516;13.290;2022-11-30T06:16:51;5.00;88.40
73955;DHT22;62306;52.516;13.290;2022-11-30T06:19:17;5.00;88.60
73955;DHT22;62306;52.516;13.290;2022-11-30T06:21:44;5.10;88.10
73955;DHT22;62306;52.516;13.290;2022-11-30T06:24:11;5.10;87.90
73955;DHT22;62306;52.516;13.290;2022-11-30T06:26:38;5.10;87.50
73955;DHT22;62306;52.516;13.290;2022-11-30T06:29:08;5.20;87.10
73955;DHT22;62306;52.516;13.290;2022-11-30T06:31:35;5.20;87.10
73955;DHT22;62306;52.516;13.290;2022-11-30T06:34:01;5.10;87.30
73955;DHT22;62306;52.516;13.290;2022-11-30T06:36:28;5.10;87.50
73955;DHT22;62306;52.516;13.290;2022-11-30T06:38:56;5.10;87.30
73955;DHT22;62306;52.516;13.290;2022-11-30T06:41:23;5.20;86.80
73955;DHT22;62306;52.516;13.290;2022-11-30T06:43:50;5.10;87.20
73955;DHT22;62306;52.516;13.290;2022-11-30T06:46:19;5.10;87.20
73955;DHT22;62306;52.516;13.290;2022-11-30T06:48:47;5.10;87.80
73955;DHT22;62306;52.516;13.290;2022-11-30T06:51:15;5.00;87.70
73955;DHT22;62306;52.516;13.290;2022-11-30T06:53:42;5.00;87.80
73955;DHT22;62306;52.516;13.290;2022-11-30T06:56:10;5.00;87.20
73955;DHT22;62306;52.516;13.290;2022-11-30T06:58:38;5.10;87.70
73955;DHT22;62306;52.516;13.290;2022-11-30T07:01:05;5.10;87.20
73955;DHT22;62306;52.516;13.290;2022-11-30T07:03:34;5.10;87.20
73955;DHT22;62306;52.516;13.290;2022-11-30T07:06:05;5.10;87.30
73955;DHT22;62306;52.516;13.290;2022-11-30T07:08:32;5.00;87.60
73955;DHT22;62306;52.516;13.290;2022-11-30T07:10:59;5.10;86.80
73955;DHT22;62306;52.516;13.290;2022-11-30T07:13:26;5.10;87.20
73955;DHT22;62306;52.516;13.290;2022-11-30T07:15:53;5.10;87.30
73955;DHT22;62306;52.516;13.290;2022-11-30T07:18:20;5.20;87.30
73955;DHT22;62306;52.516;13.290;2022-11-30T07:20:48;5.30;86.70
73955;DHT22;62306;52.516;13.290;2022-11-30T07:23:15;5.30;86.40
73955;DHT22;62306;52.516;13.290;2022-11-30T07:26:01;5.30;86.20
73955;DHT22;62306;52.516;13.290;2022-11-30T07:28:36;5.30;86.20
73955;DHT22;62306;52.516;13.290;2022-11-30T07:31:13;5.10;86.70
73955;DHT22;62306;52.516;13.290;2022-11-30T07:33:40;5.10;87.50
73955;DHT22;62306;52.516;13.290;2022-11-30T07:36:09;5.00;87.40
73955;DHT22;62306;52.516;13.290;2022-11-30T07:38:36;5.10;87.80
73955;DHT22;62306;52.516;13.290;2022-11-30T07:41:04;5.20;86.40
73955;DHT22;62306;52.516;13.290;2022-11-30T07:43:31;5.10;86.50
73955;DHT22;62306;52.516;13.290;2022-11-30T07:45:58;5.20;86.30
73955;DHT22;62306;52.516;13.290;2022-11-30T07:48:25;5.10;86.10
73955;DHT22;62306;52.516;13.290;2022-11-30T07:50:53;5.10;87.40
73955;DHT22;62306;52.516;13.290;2022-11-30T07:53:21;5.10;86.50
73955;DHT22;62306;52.516;13.290;2022-11-30T07:55:48;5.20;85.60
73955;DHT22;62306;52.516;13.290;2022-11-30T07:58:15;5.30;85.50
73955;DHT22;62306;52.516;13.290;2022-11-30T08:00:42;5.20;85.30
73955;DHT22;62306;52.516;13.290;2022-11-30T08:03:09;5.20;85.20
73955;DHT22;62306;52.516;13.290;2022-11-30T08:05:36;5.20;85.50
73955;DHT22;62306;52.516;13.290;2022-11-30T08:08:03;5.30;85.00
73955;DHT22;62306;52.516;13.290;2022-11-30T08:10:31;5.20;85.00
73955;DHT22;62306;52.516;13.290;2022-11-30T08:12:58;5.30;85.00
73955;DHT22;62306;52.516;13.290;2022-11-30T08:15:25;5.30;85.10
73955;DHT22;62306;52.516;13.290;2022-11-30T08:17:51;5.30;85.20
73955;DHT22;62306;52.516;13.290;2022-11-30T08:20:20;5.40;85.40
73955;DHT22;62306;52.516;13.290;2022-11-30T08:22:47;5.30;85.10
73955;DHT22;62306;52.516;13.290;2022-11-30T08:25:16;5.40;84.50
73955;DHT22;62306;52.516;13.290;2022-11-30T08:27:44;5.50;83.60
73955;DHT22;62306;52.516;13.290;2022-11-30T08:30:12;5.60;83.50
73955;DHT22;62306;52.516;13.290;2022-11-30T08:32:39;5.60;83.70
73955;DHT22;62306;52.516;13.290;2022-11-30T08:35:06;5.60;83.20
73955;DHT22;62306;52.516;13.290;2022-11-30T08:37:35;5.50;84.20
73955;DHT22;62306;52.516;13.290;2022-11-30T08:40:03;5.60;83.50
73955;DHT22;62306;52.516;13.290;2022-11-30T08:42:30;5.50;83.40
73955;DHT22;62306;52.516;13.290;2022-11-30T08:44:58;5.50;84.00
73955;DHT22;62306;52.516;13.290;2022-11-30T08:47:27;5.50;84.10
73955;DHT22;62306;52.516;13.290;2022-11-30T08:49:54;5.60;83.50
73955;DHT22;62306;52.516;13.290;2022-11-30T08:52:20;5.70;83.00
73955;DHT22;62306;52.516;13.290;2022-11-30T08:54:47;5.60;82.70
73955;DHT22;62306;52.516;13.290;2022-11-30T08:57:15;5.60;83.50
73955;DHT22;62306;52.516;13.290;2022-11-30T08:59:42;5.60;83.30
73955;DHT22;62306;52.516;13.290;2022-11-30T09:02:11;5.70;83.00
73955;DHT22;62306;52.516;13.290;2022-11-30T09:04:41;5.70;82.80
73955;DHT22;62306;52.516;13.290;2022-11-30T09:07:08;5.80;82.10
73955;DHT22;62306;52.516;13.290;2022-11-30T09:09:35;5.60;82.90
73955;DHT22;62306;52.516;13.290;2022-11-30T09:12:03;5.50;83.10
73955;DHT22;62306;52.516;13.290;2022-11-30T09:14:30;5.60;82.80
73955;DHT22;62306;52.516;13.290;2022-11-30T09:16:57;5.70;82.40
73955;DHT22;62306;52.516;13.290;2022-11-30T09:19:25;5.70;82.20
73955;DHT22;62306;52.516;13.290;2022-11-30T09:21:52;5.80;81.80
73955;DHT22;62306;52.516;13.290;2022-11-30T09:24:19;5.90;81.40
73955;DHT22;62306;52.516;13.290;2022-11-30T09:26:46;5.70;81.80
73955;DHT22;62306;52.516;13.290;2022-11-30T09:29:13;5.80;82.80
73955;DHT22;62306;52.516;13.290;2022-11-30T09:31:40;5.90;81.40
73955;DHT22;62306;52.516;13.290;2022-11-30T09:34:09;5.90;81.00
73955;DHT22;62306;52.516;13.290;2022-11-30T09:36:38;5.90;81.50
73955;DHT22;62306;52.516;13.290;2022-11-30T09:39:05;5.80;81.50
73955;DHT22;62306;52.516;13.290;2022-11-30T09:41:48;6.00;80.90
73955;DHT22;62306;52.516;13.290;2022-11-30T09:44:23;6.00;81.00
73955;DHT22;62306;52.516;13.290;2022-11-30T09:46:57;5.90;80.90
73955;DHT22;62306;52.516;13.290;2022-11-30T09:49:29;5.90;81.10
73955;DHT22;62306;52.516;13.290;2022-11-30T09:52:01;6.00;80.60
73955;DHT22;62306;52.516;13.290;2022-11-30T09:54:35;6.20;79.60
73955;DHT22;62306;52.516;13.290;2022-11-30T09:57:11;6.20;79.30
73955;DHT22;62306;52.516;13.290;2022-11-30T09:59:50;6.30;79.40
73955;DHT22;62306;52.516;13.290;2022-11-30T10:02:17;6.20;79.80
73955;DHT22;62306;52.516;13.290;2022-11-30T10:04:46;6.30;79.80
73955;DHT22;62306;52.516;13.290;2022-11-30T10:07:29;6.30;79.40
73955;DHT22;62306;52.516;13.290;2022-11-30T10:10:04;6.30;79.60
73955;DHT22;62306;52.516;13.290;2022-11-30T10:12:38;6.30;78.90
73955;DHT22;62306;52.516;13.290;2022-11-30T10:15:25;6.30;79.00
73955;DHT22;62306;52.516;13.290;2022-11-30T10:17:54;6.30;79.30
73955;DHT22;62306;52.516;13.290;2022-11-30T10:20:48;6.40;78.80
73955;DHT22;62306;52.516;13.290;2022-11-30T10:23:46;6.50;78.40
73955;DHT22;62306;52.516;13.290;2022-11-30T10:26:21;6.50;78.20
73955;DHT22;62306;52.516;13.290;2022-11-30T10:28:52;6.50;78.30
73955;DHT22;62306;52.516;13.290;2022-11-30T10:31:30;6.50;78.30
73955;DHT22;62306;52.516;13.290;2022-11-30T10:34:09;6.40;78.60
73955;DHT22;62306;52.516;13.290;2022-11-30T10:36:41;6.50;79.10
73955;DHT22;62306;52.516;13.290;2022-11-30T10:39:16;6.50;77.60
73955;DHT22;62306;52.516;13.290;2022-11-30T10:41:47;6.50;78.20
73955;DHT22;62306;52.516;13.290;2022-11-30T10:44:18;6.50;78.40
73955;DHT22;62306;52.516;13.290;2022-11-30T10:46:54;6.70;78.30
73955;DHT22;62306;52.516;13.290;2022-11-30T10:49:22;6.60;77.50
73955;DHT22;62306;52.516;13.290;2022-11-30T10:51:52;6.60;77.90
73955;DHT22;62306;52.516;13.290;2022-11-30T10:54:21;6.70;77.70
73955;DHT22;62306;52.516;13.290;2022-11-30T10:56:49;6.70;77.40
73955;DHT22;62306;52.516;13.290;2022-11-30T10:59:18;6.70;77.70
73955;DHT22;62306;52.516;13.290;2022-11-30T11:01:48;6.70;77.70
73955;DHT22;62306;52.516;13.290;2022-11-30T11:04:18;6.60;77.50
73955;DHT22;62306;52.516;13.290;2022-11-30T11:06:48;6.60;78.10
73955;DHT22;62306;52.516;13.290;2022-11-30T11:09:35;6.70;77.90
73955;DHT22;62306;52.516;13.290;2022-11-30T11:12:04;6.70;77.70
73955;DHT22;62306;52.516;13.290;2022-11-30T11:14:32;6.70;77.60
73955;DHT22;62306;52.516;13.290;2022-11-30T11:17:02;6.70;77.60
73955;DHT22;62306;52.516;13.290;2022-11-30T11:19:32;6.80;77.50
73955;DHT22;62306;52.516;13.290;2022-11-30T11:22:03;6.70;77.40
73955;DHT22;62306;52.516;13.290;2022-11-30T11:24:31;6.70;78.00
73955;DHT22;62306;52.516;13.290;2022-11-30T11:27:00;6.70;77.90
73955;DHT22;62306;52.516;13.290;2022-11-30T11:29:30;6.60;78.20
73955;DHT22;62306;52.516;13.290;2022-11-30T11:32:17;6.70;77.90
73955;DHT22;62306;52.516;13.290;2022-11-30T11:34:44;6.70;77.90
73955;DHT22;62306;52.516;13.290;2022-11-30T11:37:18;6.90;77.60
73955;DHT22;62306;52.516;13.290;2022-11-30T11:39:59;6.90;77.40
73955;DHT22;62306;52.516;13.290;2022-11-30T11:42:30;6.80;77.60
73955;DHT22;62306;52.516;13.290;2022-11-30T11:44:59;6.90;77.50
73955;DHT22;62306;52.516;13.290;2022-11-30T11:47:28;6.80;77.90
73955;DHT22;62306;52.516;13.290;2022-11-30T11:53:13;6.70;77.60
73955;DHT22;62306;52.516;13.290;2022-11-30T11:55:50;6.70;77.70
73955;DHT22;62306;52.516;13.290;2022-11-30T11:58:25;6.80;77.70
73955;DHT22;62306;52.516;13.290;2022-11-30T12:00:54;6.90;77.40
73955;DHT22;62306;52.516;13.290;2022-11-30T12:03:27;6.80;76.80
73955;DHT22;62306;52.516;13.290;2022-11-30T12:05:59;6.70;77.30
73955;DHT22;62306;52.516;13.290;2022-11-30T12:08:34;6.70;78.10
73955;DHT22;62306;52.516;13.290;2022-11-30T12:11:08;6.70;78.10
73955;DHT22;62306;52.516;13.290;2022-11-30T12:13:39;6.60;78.40
73955;DHT22;62306;52.516;13.290;2022-11-30T12:16:18;6.60;78.70
73955;DHT22;62306;52.516;13.290;2022-11-30T12:18:50;6.50;78.40
73955;DHT22;62306;52.516;13.290;2022-11-30T12:21:24;6.50;78.70
73955;DHT22;62306;52.516;13.290;2022-11-30T12:24:07;6.50;78.80
73955;DHT22;62306;52.516;13.290;2022-11-30T12:26:45;6.50;78.80
73955;DHT22;62306;52.516;13.290;2022-11-30T12:29:19;6.50;78.50
73955;DHT22;62306;52.516;13.290;2022-11-30T12:31:59;6.60;78.50
73955;DHT22;62306;52.516;13.290;2022-11-30T12:34:42;6.50;78.70
73955;DHT22;62306;52.516;13.290;2022-11-30T12:37:18;6.50;78.60
73955;DHT22;62306;52.516;13.290;2022-11-30T12:39:52;6.50;78.10
73955;DHT22;62306;52.516;13.290;2022-11-30T12:42:28;6.50;78.20
73955;DHT22;62306;52.516;13.290;2022-11-30T12:45:03;6.50;78.60
73955;DHT22;62306;52.516;13.290;2022-11-30T12:47:46;6.30;78.80
73955;DHT22;62306;52.516;13.290;2022-11-30T12:50:24;6.30;79.20
73955;DHT22;62306;52.516;13.290;2022-11-30T12:53:02;6.40;79.20
73955;DHT22;62306;52.516;13.290;2022-11-30T12:55:37;6.50;78.70
73955;DHT22;62306;52.516;13.290;2022-11-30T12:58:12;6.50;78.90
73955;DHT22;62306;52.516;13.290;2022-11-30T13:00:52;6.60;78.20
73955;DHT22;62306;52.516;13.290;2022-11-30T13:03:36;6.60;78.20
73955;DHT22;62306;52.516;13.290;2022-11-30T13:06:08;6.60;78.30
73955;DHT22;62306;52.516;13.290;2022-11-30T13:08:43;6.60;78.40
73955;DHT22;62306;52.516;13.290;2022-11-30T13:11:17;6.50;78.90
73955;DHT22;62306;52.516;13.290;2022-11-30T13:13:50;6.30;80.20
73955;DHT22;62306;52.516;13.290;2022-11-30T13:16:19;6.30;80.50
73955;DHT22;62306;52.516;13.290;2022-11-30T13:18:48;6.30;80.30
73955;DHT22;62306;52.516;13.290;2022-11-30T13:21:20;6.20;80.70
73955;DHT22;62306;52.516;13.290;2022-11-30T13:23:56;6.20;81.20
73955;DHT22;62306;52.516;13.290;2022-11-30T13:26:28;6.10;81.20
73955;DHT22;62306;52.516;13.290;2022-11-30T13:29:09;6.10;81.70
73955;DHT22;62306;52.516;13.290;2022-11-30T13:31:44;6.20;81.40
73955;DHT22;62306;52.516;13.290;2022-11-30T13:34:24;6.10;81.50
73955;DHT22;62306;52.516;13.290;2022-11-30T13:37:00;6.10;81.70
73955;DHT22;62306;52.516;13.290;2022-11-30T13:39:29;6.00;81.70
73955;DHT22;62306;52.516;13.290;2022-11-30T13:42:31;6.00;82.20
73955;DHT22;62306;52.516;13.290;2022-11-30T13:45:18;5.80;82.60
73955;DHT22;62306;52.516;13.290;2022-11-30T13:47:51;5.70;82.50
73955;DHT22;62306;52.516;13.290;2022-11-30T13:50:24;5.70;82.60
73955;DHT22;62306;52.516;13.290;2022-11-30T13:55:56;5.70;82.20
73955;DHT22;62306;52.516;13.290;2022-11-30T13:58:25;5.50;82.10
73955;DHT22;62306;52.516;13.290;2022-11-30T14:03:43;5.30;82.80
73955;DHT22;62306;52.516;13.290;2022-11-30T14:06:43;5.20;83.10
73955;DHT22;62306;52.516;13.290;2022-11-30T14:09:12;5.10;83.60
73955;DHT22;62306;52.516;13.290;2022-11-30T14:11:41;4.90;84.20
73955;DHT22;62306;52.516;13.290;2022-11-30T14:14:39;4.80;84.50
73955;DHT22;62306;52.516;13.290;2022-11-30T14:17:18;4.70;84.80
73955;DHT22;62306;52.516;13.290;2022-11-30T14:19:49;4.60;84.80
73955;DHT22;62306;52.516;13.290;2022-11-30T14:22:17;4.60;85.30
73955;DHT22;62306;52.516;13.290;2022-11-30T14:24:46;4.60;85.30
73955;DHT22;62306;52.516;13.290;2022-11-30T14:27:16;4.50;85.30
73955;DHT22;62306;52.516;13.290;2022-11-30T14:29:47;4.40;85.80
73955;DHT22;62306;52.516;13.290;2022-11-30T14:32:22;4.40;85.80
73955;DHT22;62306;52.516;13.290;2022-11-30T14:35:00;4.30;86.00
73955;DHT22;62306;52.516;13.290;2022-11-30T14:37:32;4.20;86.60
73955;DHT22;62306;52.516;13.290;2022-11-30T14:40:02;4.10;87.20
73955;DHT22;62306;52.516;13.290;2022-11-30T14:42:32;4.00;87.60
73955;DHT22;62306;52.516;13.290;2022-11-30T14:44:59;4.00;88.20
73955;DHT22;62306;52.516;13.290;2022-11-30T14:47:28;3.90;88.30
73955;DHT22;62306;52.516;13.290;2022-11-30T14:49:58;3.80;89.10
73955;DHT22;62306;52.516;13.290;2022-11-30T14:52:48;3.90;88.70
73955;DHT22;62306;52.516;13.290;2022-11-30T14:55:26;4.00;88.40
73955;DHT22;62306;52.516;13.290;2022-11-30T14:58:01;4.00;87.80
73955;DHT22;62306;52.516;13.290;2022-11-30T15:00:35;3.90;87.40
73955;DHT22;62306;52.516;13.290;2022-11-30T15:03:04;3.90;88.40
73955;DHT22;62306;52.516;13.290;2022-11-30T15:05:41;3.90;87.80
73955;DHT22;62306;52.516;13.290;2022-11-30T15:08:10;3.80;87.90
73955;DHT22;62306;52.516;13.290;2022-11-30T15:10:39;3.80;88.30
73955;DHT22;62306;52.516;13.290;2022-11-30T15:13:10;3.80;88.30
73955;DHT22;62306;52.516;13.290;2022-11-30T15:15:49;3.80;88.50
73955;DHT22;62306;52.516;13.290;2022-11-30T15:18:17;3.70;88.90
73955;DHT22;62306;52.516;13.290;2022-11-30T15:20:52;3.60;89.00
73955;DHT22;62306;52.516;13.290;2022-11-30T15:23:20;3.60;89.30
73955;DHT22;62306;52.516;13.290;2022-11-30T15:25:49;3.40;89.70
73955;DHT22;62306;52.516;13.290;2022-11-30T15:28:20;3.30;90.40
73955;DHT22;62306;52.516;13.290;2022-11-30T15:30:52;3.20;90.50
73955;DHT22;62306;52.516;13.290;2022-11-30T15:33:21;3.10;90.30
73955;DHT22;62306;52.516;13.290;2022-11-30T15:35:53;2.90;90.50
73955;DHT22;62306;52.516;13.290;2022-11-30T15:38:23;2.70;91.00
73955;DHT22;62306;52.516;13.290;2022-11-30T15:40:50;2.70;91.30
73955;DHT22;62306;52.516;13.290;2022-11-30T15:43:20;2.60;91.20
73955;DHT22;62306;52.516;13.290;2022-11-30T15:45:53;2.60;91.40
73955;DHT22;62306;52.516;13.290;2022-11-30T15:48:29;2.70;91.20
73955;DHT22;62306;52.516;13.290;2022-11-30T15:50:58;2.80;90.90
73955;DHT22;62306;52.516;13.290;2022-11-30T15:53:46;2.90;90.60
73955;DHT22;62306;52.516;13.290;2022-11-30T15:56:22;2.90;90.70
73955;DHT22;62306;52.516;13.290;2022-11-30T15:59:00;2.90;90.70
73955;DHT22;62306;52.516;13.290;2022-11-30T16:01:27;2.90;90.60